METAR AND TAF INFORMATION
METAR FOR SVJC
ADDS - METARS form results

(0916 UTC 28 September 2020)
Data provider http://aviationweather.gov/metar/data/
 
Forecast for: SVJC (PARAGUANA/JOSEFA, VE)
Text: TAF SVJC 280400Z 2806/2906 07003KT 9999 BKN013 TX35/2818Z TN25/2808Z
Forecast period: 0600 UTC 28 September 2020 to 0600 UTC 29 September 2020
Forecast type: FROM: standard forecast or significant change
Winds: from the ENE (70 degrees) at 3 MPH (3 knots; 1.5 m/s)
Visibility: 6 or more miles (10+ km)
Ceiling: 1300 feet AGL
Clouds: broken clouds at 1300 feet AGL
Weather: no significant weather forecast for this period
Text: TEMPO 2806/2810 8000 +DZ OVC013
Forecast period: 0600 to 1000 UTC 28 September 2020
Forecast type: TEMPORARY: The following changes expected for less than half the time period
Visibility: 5 miles (8 km)
Ceiling: 1300 feet AGL
Clouds: overcast cloud deck at 1300 feet AGL
Weather: +DZ  (heavy drizzle)

 AIRPORT MAP

 RUNWAY INFORMATION
Runway 09 Runway length 9186 ft Runway width 148 ft
Runway elevation 75 ft Runway displaced threshold 0 ft Runway heading 85
Runway 27 Runway length 9186 ft Runway width 148 ft
Runway elevation 75 ft Runway displaced threshold 0 ft Runway heading 265

 AIRPORT FREQUENCIES
Type TWR Name TWR Frequency 118.45 MHZ

 AIRPORT NEAR NAVIGATION AIDS
Type VOR-DME Name Paraguana Frequency 113600 KHZ
Type NDB Name Paraguana Frequency 385 KHZ


Powered by Virtual Airlines Manager